createdAt,value
2023-03-20T00:03:54.390Z,100596.50
2023-03-20T00:07:57.611Z,100585.19
2023-03-20T00:12:00.308Z,100583.28
2023-03-20T00:16:02.761Z,100581.50
2023-03-20T00:20:05.331Z,100586.63
2023-03-20T00:24:07.952Z,100584.69
2023-03-20T00:28:31.306Z,100588.78
2023-03-20T00:32:33.378Z,100582.66
2023-03-20T00:36:35.795Z,100587.09
2023-03-20T00:40:38.123Z,100584.53
2023-03-20T00:44:51.083Z,100582.81
2023-03-20T00:48:53.614Z,100572.53
2023-03-20T00:52:57.080Z,100575.03
2023-03-20T00:57:02.560Z,100565.66
2023-03-20T01:01:04.590Z,100571.03
2023-03-20T01:05:06.767Z,100568.41
2023-03-20T01:09:08.928Z,100572.81
2023-03-20T01:13:19.149Z,100570.00
2023-03-20T01:17:23.123Z,100561.41
2023-03-20T01:21:25.271Z,100566.63
2023-03-20T01:25:27.448Z,100580.28
2023-03-20T01:29:32.574Z,100582.69
2023-03-20T01:33:34.696Z,100575.03
2023-03-20T01:37:37.163Z,100577.63
2023-03-20T01:41:39.619Z,100573.44
2023-03-20T01:46:14.192Z,100573.53
2023-03-20T01:50:26.359Z,100574.69
2023-03-20T01:54:43.920Z,100555.69
2023-03-20T01:58:54.443Z,100561.66
2023-03-20T02:02:57.394Z,100555.69
2023-03-20T02:07:21.511Z,100552.34
2023-03-20T02:11:43.467Z,100550.53
2023-03-20T02:16:10.783Z,100549.03
2023-03-20T02:20:43.195Z,100547.03
2023-03-20T02:24:51.329Z,100546.31
2023-03-20T02:29:04.359Z,100535.09
2023-03-20T02:33:39.128Z,100542.00
2023-03-20T02:37:59.725Z,100541.00
2023-03-20T02:42:33.949Z,100528.13
2023-03-20T02:46:45.785Z,100535.09
2023-03-20T02:51:27.038Z,100528.25
2023-03-20T02:55:39.993Z,100522.50
2023-03-20T03:00:18.101Z,100526.03
2023-03-20T03:04:27.751Z,100513.38
2023-03-20T03:08:37.458Z,100516.16
2023-03-20T03:12:45.291Z,100516.38
2023-03-20T03:16:49.945Z,100505.34
2023-03-20T03:20:56.715Z,100499.50
2023-03-20T03:24:59.235Z,100489.97
2023-03-20T03:29:09.971Z,100491.25
2023-03-20T03:33:17.145Z,100492.94
2023-03-20T03:37:35.567Z,100485.34
2023-03-20T03:41:46.196Z,100472.56
2023-03-20T03:46:24.685Z,100467.56
2023-03-20T03:50:38.645Z,100463.50
2023-03-20T03:54:53.952Z,100451.38
2023-03-20T03:59:19.681Z,100453.19
2023-03-20T04:03:29.076Z,100443.84
2023-03-20T04:07:31.451Z,100444.75
2023-03-20T04:11:35.682Z,100447.44
2023-03-20T04:15:38.481Z,100451.97
2023-03-20T04:19:42.400Z,100438.31
2023-03-20T04:23:44.977Z,100445.19
2023-03-20T04:27:47.545Z,100448.81
2023-03-20T04:31:59.857Z,100454.09
2023-03-20T04:36:30.754Z,100445.31
2023-03-20T04:40:33.108Z,100441.78
2023-03-20T04:44:35.347Z,100443.44
2023-03-20T04:48:38.024Z,100448.63
2023-03-20T04:52:40.378Z,100446.13
2023-03-20T04:56:42.771Z,100447.91
2023-03-20T05:00:51.615Z,100441.88
2023-03-20T05:04:54.225Z,100451.25
2023-03-20T05:08:56.513Z,100449.34
2023-03-20T05:12:58.857Z,100453.44
2023-03-20T05:17:19.740Z,100445.44
2023-03-20T05:21:41.726Z,100447.78
2023-03-20T05:26:00.455Z,100454.22
2023-03-20T05:30:11.481Z,100461.53
2023-03-20T05:34:31.742Z,100463.66
2023-03-20T05:38:44.149Z,100470.78
2023-03-20T05:43:05.672Z,100469.31
2023-03-20T05:47:16.542Z,100481.75
2023-03-20T05:51:31.372Z,100504.53
2023-03-20T05:55:45.511Z,100511.56
2023-03-20T06:00:06.817Z,100522.97
2023-03-20T06:04:20.613Z,100525.69
2023-03-20T06:08:40.635Z,100530.06
2023-03-20T06:12:43.126Z,100546.47
2023-03-20T06:16:45.634Z,100554.41
2023-03-20T06:20:53.687Z,100562.41
2023-03-20T06:24:57.224Z,100551.66
2023-03-20T06:29:06.225Z,100558.09
2023-03-20T06:33:10.566Z,100564.53
2023-03-20T06:37:26.661Z,100563.31
2023-03-20T06:41:36.162Z,100567.59
2023-03-20T06:45:43.006Z,100570.75
2023-03-20T06:49:53.769Z,100573.47
2023-03-20T06:53:56.757Z,100570.38
2023-03-20T06:58:02.206Z,100571.09
2023-03-20T07:02:06.254Z,100568.50
2023-03-20T07:06:09.769Z,100573.28
2023-03-20T07:10:12.760Z,100578.19
2023-03-20T07:14:17.362Z,100577.06
2023-03-20T07:18:25.752Z,100579.94
2023-03-20T07:22:29.988Z,100580.72
2023-03-20T07:26:48.000Z,100581.56
2023-03-20T07:30:50.912Z,100580.56
2023-03-20T07:34:53.672Z,100579.81
2023-03-20T07:38:56.342Z,100570.81
2023-03-20T07:42:59.513Z,100571.84
2023-03-20T07:47:20.182Z,100573.53
2023-03-20T07:51:22.237Z,100575.13
2023-03-20T07:55:24.282Z,100567.50
2023-03-20T07:59:26.491Z,100569.66
2023-03-20T08:03:28.639Z,100566.03
2023-03-20T08:07:31.017Z,100571.78
2023-03-20T08:11:34.764Z,100567.22
2023-03-20T08:15:37.327Z,100560.84
2023-03-20T08:19:39.860Z,100566.28
2023-03-20T08:23:41.602Z,100569.44
2023-03-20T08:27:43.642Z,100565.38
2023-03-20T08:31:45.876Z,100562.34
2023-03-20T08:35:58.361Z,100558.44
2023-03-20T08:40:00.427Z,100560.28
2023-03-20T08:44:02.961Z,100557.53
2023-03-20T08:48:05.194Z,100549.88
2023-03-20T08:52:07.223Z,100553.13
2023-03-20T08:56:10.165Z,100555.88
2023-03-20T09:00:15.632Z,100548.38
2023-03-20T09:04:18.471Z,100551.66
2023-03-20T09:08:20.611Z,100567.22
2023-03-20T09:12:22.461Z,100561.72
2023-03-20T09:16:24.538Z,100557.09
2023-03-20T09:20:26.853Z,100559.16
2023-03-20T09:24:29.300Z,100545.84
2023-03-20T09:28:31.342Z,100551.53
2023-03-20T09:32:35.046Z,100554.06
2023-03-20T09:36:37.389Z,100550.06
2023-03-20T09:40:52.314Z,100545.25
2023-03-20T09:45:01.383Z,100539.44
2023-03-20T09:49:18.819Z,100531.13
2023-03-20T09:53:36.178Z,100535.94
2023-03-20T09:57:42.261Z,100539.91
2023-03-20T10:01:50.007Z,100540.63
2023-03-20T10:05:59.534Z,100536.91
2023-03-20T10:10:01.697Z,100532.69
2023-03-20T10:14:06.763Z,100537.50
2023-03-20T10:18:18.392Z,100535.34
2023-03-20T10:22:40.730Z,100536.19
2023-03-20T10:26:46.389Z,100535.16
2023-03-20T10:30:57.531Z,100528.00
2023-03-20T10:35:02.432Z,100536.13
2023-03-20T10:39:10.425Z,100529.56
2023-03-20T10:43:23.828Z,100522.94
2023-03-20T10:47:30.459Z,100522.38
2023-03-20T10:51:48.600Z,100527.31
2023-03-20T10:55:51.289Z,100529.56
2023-03-20T10:59:58.462Z,100524.34
2023-03-20T11:04:00.932Z,100521.31
2023-03-20T11:08:13.226Z,100521.88
2023-03-20T11:12:20.351Z,100523.63
2023-03-20T11:16:33.058Z,100523.50
2023-03-20T11:20:40.382Z,100526.41
2023-03-20T11:24:46.259Z,100516.69
2023-03-20T11:28:56.380Z,100516.22
2023-03-20T11:33:02.000Z,100509.09
2023-03-20T11:37:19.228Z,100500.56
2023-03-20T11:41:30.354Z,100500.09
2023-03-20T11:45:37.871Z,100490.22
2023-03-20T11:49:55.415Z,100488.44
2023-03-20T11:54:14.402Z,100485.91
2023-03-20T11:58:17.444Z,100479.41
2023-03-20T12:02:23.634Z,100480.28
2023-03-20T12:06:36.852Z,100479.09
2023-03-20T12:10:43.913Z,100476.13
2023-03-20T12:14:52.226Z,100484.13
2023-03-20T12:19:01.696Z,100476.31
2023-03-20T12:23:14.156Z,100471.97
2023-03-20T12:27:29.951Z,100463.66
2023-03-20T12:31:53.868Z,100472.94
2023-03-20T12:35:58.425Z,100469.78
2023-03-20T12:40:04.428Z,100465.63
2023-03-20T12:44:27.815Z,100474.38
2023-03-20T12:48:44.626Z,100463.34
2023-03-20T12:53:08.358Z,100463.75
2023-03-20T12:57:33.200Z,100466.63
2023-03-20T13:01:57.827Z,100462.41
2023-03-20T13:06:31.268Z,100461.34
2023-03-20T13:10:40.134Z,100458.81
2023-03-20T13:14:52.138Z,100453.41
2023-03-20T13:19:12.805Z,100452.00
2023-03-20T13:23:36.349Z,100449.31
2023-03-20T13:28:04.737Z,100458.81
2023-03-20T13:32:21.492Z,100449.06
2023-03-20T13:36:54.053Z,100452.81
2023-03-20T13:41:03.385Z,100448.50
2023-03-20T13:45:19.858Z,100450.28
2023-03-20T13:49:27.764Z,100446.53
2023-03-20T13:53:46.086Z,100445.81
2023-03-20T13:58:13.620Z,100441.00
2023-03-20T14:02:44.484Z,100445.72
2023-03-20T14:06:54.663Z,100443.69
2023-03-20T14:11:06.182Z,100444.41
2023-03-20T14:15:12.285Z,100450.72
2023-03-20T14:19:19.074Z,100447.91
2023-03-20T14:23:34.104Z,100447.75
2023-03-20T14:27:53.582Z,100445.38
2023-03-20T14:32:13.745Z,100451.97
2023-03-20T14:36:21.620Z,100448.78
2023-03-20T14:40:30.720Z,100450.50
2023-03-20T14:44:53.289Z,100448.91
2023-03-20T14:48:56.438Z,100438.47
2023-03-20T14:53:27.325Z,100443.97
2023-03-20T14:57:52.860Z,100444.16
2023-03-20T15:01:59.788Z,100437.09
2023-03-20T15:06:06.559Z,100434.72
2023-03-20T15:10:08.905Z,100443.81
2023-03-20T15:14:21.060Z,100441.16
2023-03-20T15:18:25.424Z,100439.94
2023-03-20T15:22:27.727Z,100433.34
2023-03-20T15:26:32.977Z,100425.75
2023-03-20T15:30:38.699Z,100419.97
2023-03-20T15:34:42.361Z,100428.97
2023-03-20T15:38:46.879Z,100436.78
2023-03-20T15:42:58.728Z,100434.47
2023-03-20T15:47:04.157Z,100422.91
2023-03-20T15:51:06.711Z,100429.00
2023-03-20T15:55:16.682Z,100429.72
2023-03-20T15:59:23.473Z,100432.69
2023-03-20T16:03:27.605Z,100426.38
2023-03-20T16:07:32.589Z,100433.03
2023-03-20T16:11:43.845Z,100429.63
2023-03-20T16:15:46.477Z,100434.91
2023-03-20T16:19:48.864Z,100414.03
2023-03-20T16:23:54.760Z,100418.31
2023-03-20T16:27:58.498Z,100405.81
2023-03-20T16:32:07.750Z,100388.00
2023-03-20T16:36:18.873Z,100376.78
2023-03-20T16:40:32.746Z,100367.16
2023-03-20T16:44:36.937Z,100356.41
2023-03-20T16:48:42.520Z,100339.56
2023-03-20T16:53:10.206Z,100329.25
2023-03-20T16:57:18.322Z,100331.00
2023-03-20T17:01:23.766Z,100327.16
2023-03-20T17:05:36.825Z,100330.91
2023-03-20T17:10:14.572Z,100343.59
2023-03-20T17:14:17.334Z,100352.06
2023-03-20T17:18:19.798Z,100349.06
2023-03-20T17:22:24.301Z,100345.13
2023-03-20T17:26:26.595Z,100350.19
2023-03-20T17:30:28.756Z,100351.56
2023-03-20T17:34:31.425Z,100340.41
2023-03-20T17:38:33.540Z,100346.31
2023-03-20T17:42:35.566Z,100351.44
2023-03-20T17:46:53.924Z,100336.97
2023-03-20T17:50:59.208Z,100333.38
2023-03-20T17:55:01.328Z,100337.91
2023-03-20T17:59:03.579Z,100351.97
2023-03-20T18:03:05.788Z,100332.97
2023-03-20T18:07:09.314Z,100336.69
2023-03-20T18:11:11.468Z,100346.75
2023-03-20T18:15:13.748Z,100349.94
2023-03-20T18:19:25.769Z,100361.13
2023-03-20T18:23:28.000Z,100362.16
2023-03-20T18:27:29.730Z,100360.31
2023-03-20T18:31:31.870Z,100360.63
2023-03-20T18:35:37.155Z,100379.56
2023-03-20T18:39:39.392Z,100373.09
2023-03-20T18:43:41.965Z,100385.41
2023-03-20T18:47:44.076Z,100387.56
2023-03-20T18:51:46.498Z,100386.31
2023-03-20T18:55:48.680Z,100384.56
2023-03-20T18:59:50.662Z,100389.09
2023-03-20T19:03:53.978Z,100387.78
2023-03-20T19:07:56.555Z,100383.56
2023-03-20T19:11:58.763Z,100387.94
2023-03-20T19:16:01.074Z,100397.00
2023-03-20T19:20:03.783Z,100380.31
2023-03-20T19:24:07.105Z,100385.94
2023-03-20T19:28:21.670Z,100398.03
2023-03-20T19:32:25.080Z,100393.41
2023-03-20T19:36:32.668Z,100390.19
2023-03-20T19:40:43.017Z,100395.41
2023-03-20T19:44:45.413Z,100385.41
2023-03-20T19:48:51.163Z,100397.72
2023-03-20T19:52:56.445Z,100379.88
2023-03-20T19:56:58.435Z,100389.84
2023-03-20T20:01:00.602Z,100390.09
2023-03-20T20:05:02.830Z,100386.81
2023-03-20T20:09:05.233Z,100385.09
2023-03-20T20:13:07.412Z,100379.06
2023-03-20T20:17:09.529Z,100378.91
2023-03-20T20:22:02.503Z,100380.06
2023-03-20T20:25:33.515Z,100386.84
2023-03-20T20:29:35.644Z,100404.94
2023-03-20T20:33:38.438Z,100423.06
2023-03-20T20:42:05.131Z,100435.59
2023-03-20T20:46:06.940Z,100418.78
2023-03-20T20:50:11.760Z,100421.56
2023-03-20T20:54:14.232Z,100442.13
2023-03-20T20:58:16.368Z,100436.63
2023-03-20T21:02:18.498Z,100431.06
2023-03-20T21:06:21.924Z,100422.78
2023-03-20T21:10:24.041Z,100424.63
2023-03-20T21:14:26.414Z,100423.88
2023-03-20T21:18:28.469Z,100426.66
2023-03-20T21:22:30.715Z,100428.44
2023-03-20T21:26:32.463Z,100418.38
2023-03-20T21:30:34.682Z,100418.38
2023-03-20T21:34:38.060Z,100414.63
2023-03-20T21:43:02.442Z,100423.78
2023-03-20T21:47:55.806Z,100415.66
2023-03-20T21:56:40.287Z,100426.66
2023-03-20T22:01:03.256Z,100419.38
2023-03-20T22:05:34.856Z,100428.16
2023-03-20T22:09:45.453Z,100418.50
2023-03-20T22:23:00.324Z,100425.69
2023-03-20T22:27:18.877Z,100430.91
2023-03-20T22:48:20.893Z,100411.50
2023-03-20T22:52:34.704Z,100421.34
2023-03-20T22:56:40.571Z,100416.44
2023-03-20T23:00:42.958Z,100419.38
2023-03-20T23:04:45.111Z,100412.38
2023-03-20T23:08:54.568Z,100423.25
2023-03-20T23:12:59.280Z,100420.31
2023-03-20T23:17:01.488Z,100409.69
2023-03-20T23:21:04.171Z,100411.41
2023-03-20T23:25:16.400Z,100407.22
2023-03-20T23:29:23.061Z,100407.53
2023-03-20T23:33:25.280Z,100406.41
2023-03-20T23:37:27.421Z,100408.66
2023-03-20T23:41:54.028Z,100416.03
2023-03-20T23:45:51.576Z,100411.34
2023-03-20T23:49:53.658Z,100406.09
2023-03-20T23:53:55.760Z,100403.63
2023-03-20T23:57:57.418Z,100422.59
